Time;durP1;ratioP1;P1;durP2;ratioP2;P2;SDS_P1;SDS_P2;PMS_P1;PMS_P2;Temp;Humidity;BMP_temperature;BMP_pressure;BME280_temperature;BME280_humidity;BME280_pressure;Samples;Min_cycle;Max_cycle;Signal;HPM_P1;HPM_P2
2023/05/29 00:03:25;;;;;;;6.85;3.83;;;10.40;99.90;;;;;;10169195;29;20653;-82
2023/05/29 00:08:28;;;;;;;7.35;3.30;;;10.10;99.90;;;;;;10169721;29;20239;-82
2023/05/29 00:13:31;;;;;;;5.40;4.20;;;10.00;99.90;;;;;;10111675;29;20276;-82
2023/05/29 00:18:34;;;;;;;7.88;3.58;;;9.80;99.90;;;;;;10112323;29;20267;-82
2023/05/29 00:23:37;;;;;;;12.18;3.75;;;9.80;99.90;;;;;;10128228;29;20685;-82
2023/05/29 00:28:39;;;;;;;10.15;4.43;;;9.80;99.90;;;;;;10166218;29;20632;-82
2023/05/29 00:33:42;;;;;;;55.20;7.80;;;9.60;99.90;;;;;;10156653;29;20658;-82
2023/05/29 00:38:45;;;;;;;22.00;4.80;;;9.70;99.90;;;;;;10148992;29;20260;-82
2023/05/29 00:43:48;;;;;;;15.52;3.78;;;9.40;99.90;;;;;;10152997;29;20247;-81
2023/05/29 00:48:50;;;;;;;16.45;4.40;;;9.50;99.90;;;;;;10149105;29;20254;-81
2023/05/29 00:53:53;;;;;;;16.48;5.18;;;9.50;99.90;;;;;;10149441;29;20290;-82
2023/05/29 00:58:56;;;;;;;7.50;4.15;;;9.10;99.90;;;;;;10149417;29;20330;-82
2023/05/29 01:04:00;;;;;;;5.30;3.75;;;9.10;99.90;;;;;;10166739;29;20244;-82
2023/05/29 01:09:03;;;;;;;10.40;4.13;;;9.00;99.90;;;;;;10163994;29;20307;-82
2023/05/29 01:14:09;;;;;;;5.28;3.60;;;9.20;99.90;;;;;;10126316;29;1146172;-82
2023/05/29 01:19:22;;;;;;;8.15;4.63;;;9.20;99.90;;;;;;10200742;23;20259;-82
2023/05/29 01:24:25;;;;;;;7.22;3.97;;;9.10;99.90;;;;;;10124220;29;20232;-82
2023/05/29 01:29:31;;;;;;;7.30;3.58;;;9.10;99.90;;;;;;10158601;29;20268;-82
2023/05/29 01:34:34;;;;;;;6.07;3.40;;;8.90;99.90;;;;;;10165712;29;20698;-82
2023/05/29 01:39:37;;;;;;;7.30;4.00;;;8.70;99.90;;;;;;10150051;29;20258;-82
2023/05/29 01:44:40;;;;;;;9.55;3.90;;;8.80;99.90;;;;;;10166057;29;20243;-82
2023/05/29 01:49:43;;;;;;;11.20;4.10;;;8.80;99.90;;;;;;10170964;29;20251;-82
2023/05/29 01:54:46;;;;;;;7.00;3.53;;;8.90;99.90;;;;;;10189230;29;20309;-82
2023/05/29 01:59:49;;;;;;;7.28;3.67;;;9.00;99.90;;;;;;10152178;29;20291;-82
2023/05/29 02:04:53;;;;;;;5.45;2.50;;;8.70;99.90;;;;;;10148461;29;20662;-82
2023/05/29 02:09:55;;;;;;;6.72;4.03;;;9.20;99.90;;;;;;10118189;29;20336;-82
2023/05/29 02:14:58;;;;;;;7.00;3.92;;;9.40;99.90;;;;;;10142371;29;20687;-82
2023/05/29 02:20:04;;;;;;;4.95;3.80;;;9.00;99.90;;;;;;10149485;29;20330;-82
2023/05/29 02:25:07;;;;;;;6.85;4.43;;;8.80;99.90;;;;;;10140240;29;20296;-82
2023/05/29 02:30:11;;;;;;;10.68;4.85;;;8.60;99.90;;;;;;10117666;29;20264;-82
2023/05/29 02:35:15;;;;;;;6.45;3.95;;;8.50;99.90;;;;;;10117052;29;20718;-82
2023/05/29 02:40:18;;;;;;;5.28;3.67;;;8.30;99.90;;;;;;10117423;29;20267;-82
2023/05/29 02:45:20;;;;;;;7.22;3.58;;;8.80;99.90;;;;;;10148421;29;20251;-82
2023/05/29 02:50:23;;;;;;;5.72;2.85;;;8.60;99.90;;;;;;10171892;29;20306;-82
2023/05/29 02:55:25;;;;;;;6.18;3.65;;;8.70;99.90;;;;;;10155772;29;20659;-82
2023/05/29 03:00:28;;;;;;;4.85;3.88;;;8.60;99.90;;;;;;10172288;29;20667;-82
2023/05/29 03:05:33;;;;;;;10.35;3.15;;;8.60;99.90;;;;;;10153942;29;20307;-82
2023/05/29 03:10:35;;;;;;;4.90;3.58;;;8.70;99.90;;;;;;10168524;29;20693;-82
2023/05/29 03:15:38;;;;;;;4.35;2.92;;;9.00;99.90;;;;;;10155221;29;20255;-82
2023/05/29 03:20:42;;;;;;;5.18;3.58;;;8.80;99.90;;;;;;10154453;29;20266;-82
2023/05/29 03:25:45;;;;;;;4.93;3.33;;;8.80;99.90;;;;;;10154000;29;20275;-82
2023/05/29 03:30:48;;;;;;;2.30;1.93;;;8.60;99.90;;;;;;10176417;29;20254;-82
2023/05/29 03:35:53;;;;;;;3.05;2.35;;;8.70;99.90;;;;;;10185225;29;20294;-82
2023/05/29 03:40:56;;;;;;;3.20;2.33;;;9.30;99.90;;;;;;10171917;29;20322;-82
2023/05/29 03:45:59;;;;;;;4.15;2.80;;;9.50;99.90;;;;;;10189728;29;20652;-82
2023/05/29 03:51:05;;;;;;;9.98;3.90;;;9.80;99.90;;;;;;10161975;29;20239;-82
2023/05/29 03:56:11;;;;;;;6.60;3.58;;;9.60;99.90;;;;;;10152706;29;20243;-82
2023/05/29 04:01:13;;;;;;;2.97;2.33;;;9.60;99.90;;;;;;10238759;23;20336;-82
2023/05/29 04:06:16;;;;;;;8.40;3.85;;;9.60;99.90;;;;;;10265504;28;20241;-82
2023/05/29 04:11:22;;;;;;;9.38;3.08;;;9.80;99.90;;;;;;10224047;28;20667;-82
2023/05/29 04:16:25;;;;;;;6.88;3.00;;;10.00;99.90;;;;;;10231110;28;20312;-82
2023/05/29 04:21:27;;;;;;;5.75;3.60;;;10.30;99.90;;;;;;10230453;28;20258;-82
2023/05/29 04:26:32;;;;;;;3.83;2.50;;;10.70;99.90;;;;;;10245454;28;20262;-82
2023/05/29 04:31:38;;;;;;;6.18;3.08;;;11.30;99.90;;;;;;10231759;28;20293;-82
2023/05/29 04:36:44;;;;;;;3.58;1.23;;;12.20;99.90;;;;;;10230602;28;20242;-83
2023/05/29 04:41:49;;;;;;;6.10;3.10;;;12.20;99.90;;;;;;10243529;28;20229;-83
2023/05/29 04:46:56;;;;;;;5.68;3.00;;;12.70;99.90;;;;;;10269071;28;20249;-82
2023/05/29 04:52:00;;;;;;;5.22;3.17;;;12.80;99.90;;;;;;10269096;28;20284;-82
2023/05/29 04:57:03;;;;;;;4.60;3.03;;;12.90;99.90;;;;;;10287493;28;20605;-82
2023/05/29 05:02:08;;;;;;;12.45;4.03;;;13.10;99.90;;;;;;10251591;28;20312;-82
2023/05/29 05:07:11;;;;;;;8.82;3.88;;;13.30;99.90;;;;;;10230500;28;20246;-82
2023/05/29 05:12:14;;;;;;;4.50;3.28;;;13.30;99.90;;;;;;10217126;28;20242;-82
2023/05/29 05:17:18;;;;;;;6.35;3.65;;;13.40;99.90;;;;;;10229590;28;20316;-82
2023/05/29 05:22:23;;;;;;;4.45;2.90;;;13.50;99.90;;;;;;10251214;28;20210;-83
2023/05/29 05:27:34;;;;;;;6.03;2.80;;;13.60;99.90;;;;;;10252056;28;20296;-84
2023/05/29 05:32:38;;;;;;;5.97;2.95;;;13.80;99.90;;;;;;10240101;28;20296;-84
2023/05/29 05:37:41;;;;;;;4.60;2.92;;;14.00;99.90;;;;;;10260587;28;20269;-84
2023/05/29 05:42:44;;;;;;;4.00;2.50;;;14.20;99.90;;;;;;10266518;28;20256;-82
2023/05/29 05:47:48;;;;;;;7.75;3.78;;;14.40;99.90;;;;;;10238285;28;20245;-82
2023/05/29 05:52:53;;;;;;;12.45;3.60;;;14.70;99.10;;;;;;10237830;28;20245;-82
2023/05/29 05:57:56;;;;;;;4.90;3.33;;;14.90;98.20;;;;;;10268226;28;20261;-82
2023/05/29 06:03:00;;;;;;;14.88;3.78;;;15.10;97.40;;;;;;10258863;28;20294;-82
2023/05/29 06:08:15;;;;;;;16.05;6.10;;;15.10;96.60;;;;;;10259909;28;20261;-81
2023/05/29 06:13:18;;;;;;;10.93;3.30;;;15.40;95.80;;;;;;10250354;28;20242;-81
2023/05/29 06:18:25;;;;;;;5.95;3.17;;;15.70;95.10;;;;;;10233966;28;20316;-81
2023/05/29 06:23:29;;;;;;;5.22;2.55;;;16.00;93.70;;;;;;10300148;28;20248;-81
2023/05/29 06:28:32;;;;;;;6.57;3.58;;;16.40;93.20;;;;;;10291625;28;20273;-81
2023/05/29 06:33:37;;;;;;;5.65;2.67;;;16.40;92.20;;;;;;10253433;28;20289;-82
2023/05/29 06:38:46;;;;;;;6.72;3.30;;;16.50;90.60;;;;;;10265207;28;20305;-81
2023/05/29 06:43:49;;;;;;;7.72;3.38;;;16.80;90.50;;;;;;10242845;28;20246;-82
2023/05/29 06:48:55;;;;;;;5.18;2.58;;;16.90;90.60;;;;;;10241461;28;20282;-81
2023/05/29 06:54:02;;;;;;;7.25;2.78;;;17.20;90.80;;;;;;10240997;28;20308;-82
2023/05/29 06:59:05;;;;;;;7.13;3.53;;;17.50;90.50;;;;;;10247898;28;20707;-82
2023/05/29 07:04:08;;;;;;;2.95;2.42;;;17.70;89.10;;;;;;10257032;28;20256;-82
2023/05/29 07:09:12;;;;;;;5.10;3.28;;;17.90;84.30;;;;;;10264276;28;20257;-81
2023/05/29 07:14:15;;;;;;;6.25;2.50;;;18.10;79.90;;;;;;10258059;28;20241;-81
2023/05/29 07:19:19;;;;;;;7.80;2.90;;;18.10;76.70;;;;;;10252881;28;20345;-82
2023/05/29 07:24:25;;;;;;;4.68;2.53;;;18.40;78.90;;;;;;10252105;28;20300;-82
2023/05/29 07:29:28;;;;;;;5.25;2.65;;;18.50;76.00;;;;;;10261776;28;20702;-82
2023/05/29 07:34:31;;;;;;;5.78;2.22;;;19.00;78.20;;;;;;10241676;28;20245;-82
2023/05/29 07:39:35;;;;;;;3.92;2.78;;;19.00;79.40;;;;;;10252136;28;20265;-81
2023/05/29 07:44:49;;;;;;;6.97;2.63;;;19.20;71.50;;;;;;10231779;28;20750;-81
2023/05/29 07:49:53;;;;;;;3.83;2.30;;;19.40;68.10;;;;;;10234937;28;20241;-82
2023/05/29 07:55:01;;;;;;;6.38;2.83;;;19.50;70.50;;;;;;10251340;28;20257;-81
2023/05/29 08:00:08;;;;;;;5.93;2.40;;;19.80;69.70;;;;;;10276986;28;20261;-81
2023/05/29 08:05:20;;;;;;;8.57;2.72;;;19.90;68.70;;;;;;10268581;28;20685;-81
2023/05/29 08:10:25;;;;;;;5.95;3.08;;;20.00;64.40;;;;;;10234976;28;20687;-82
2023/05/29 08:15:27;;;;;;;11.25;3.40;;;19.90;56.30;;;;;;10268313;28;20280;-81
2023/05/29 08:20:30;;;;;;;6.00;2.78;;;20.00;56.20;;;;;;10287453;28;20680;-81
2023/05/29 08:25:33;;;;;;;4.10;2.50;;;20.20;60.60;;;;;;10245349;28;20235;-81
2023/05/29 08:30:37;;;;;;;9.02;2.80;;;20.30;58.30;;;;;;10255215;28;20818;-80
2023/05/29 08:35:39;;;;;;;5.55;2.67;;;20.40;54.30;;;;;;10255679;28;20666;-79
2023/05/29 08:40:42;;;;;;;6.07;2.92;;;20.30;51.90;;;;;;10232510;28;20719;-80
2023/05/29 08:45:45;;;;;;;4.28;2.38;;;20.40;48.80;;;;;;10233032;28;20288;-80
2023/05/29 08:50:48;;;;;;;6.38;3.03;;;20.50;54.80;;;;;;10259359;28;20689;-80
2023/05/29 08:55:52;;;;;;;5.63;2.17;;;20.40;47.90;;;;;;10267259;28;20744;-80
2023/05/29 09:00:55;;;;;;;5.10;2.10;;;20.60;52.30;;;;;;10268586;28;20300;-80
2023/05/29 09:06:03;;;;;;;6.65;3.40;;;20.70;46.60;;;;;;10248041;28;20639;-80
2023/05/29 09:11:06;;;;;;;7.00;2.72;;;20.70;38.90;;;;;;10282841;28;20289;-80
2023/05/29 09:16:09;;;;;;;5.22;2.55;;;20.80;38.20;;;;;;10261225;28;20308;-82
2023/05/29 09:21:27;;;;;;;5.40;2.80;;;20.90;46.40;;;;;;10269962;28;20682;-81
2023/05/29 09:26:30;;;;;;;4.45;2.40;;;21.00;39.50;;;;;;10241348;28;20265;-81
2023/05/29 09:31:38;;;;;;;7.63;3.13;;;21.10;42.70;;;;;;10255597;28;20253;-80
2023/05/29 09:36:41;;;;;;;6.25;3.28;;;21.20;38.20;;;;;;10283647;28;20252;-80
2023/05/29 09:41:45;;;;;;;2.58;2.28;;;21.30;38.50;;;;;;10274786;28;20730;-81
2023/05/29 09:46:49;;;;;;;6.85;3.00;;;21.20;39.10;;;;;;10260900;28;20995;-80
2023/05/29 09:51:54;;;;;;;3.22;2.47;;;21.10;36.80;;;;;;10306836;23;20307;-79
2023/05/29 09:57:00;;;;;;;7.93;2.83;;;21.30;36.70;;;;;;10273950;28;20239;-80
2023/05/29 10:02:04;;;;;;;4.07;2.67;;;21.30;33.00;;;;;;10248668;28;20265;-79
2023/05/29 10:07:27;;;;;;;6.20;3.25;;;21.20;35.90;;;;;;10225726;28;20229;-80
2023/05/29 10:12:36;;;;;;;5.82;2.75;;;21.60;39.70;;;;;;10221413;28;20242;-82
2023/05/29 10:17:44;;;;;;;2.00;1.73;;;21.80;37.10;;;;;;10249449;28;20251;-82
2023/05/29 10:22:54;;;;;;;8.95;2.97;;;21.90;33.00;;;;;;10246418;28;20724;-81
2023/05/29 10:27:58;;;;;;;5.60;2.45;;;21.90;32.10;;;;;;10231478;29;20278;-81
2023/05/29 10:33:09;;;;;;;3.28;2.08;;;22.20;32.20;;;;;;10212732;29;20270;-81
2023/05/29 10:38:16;;;;;;;6.28;3.28;;;22.20;32.70;;;;;;10178955;29;20691;-81
2023/05/29 10:43:32;;;;;;;8.27;3.13;;;22.00;26.60;;;;;;10228292;29;20684;-81
2023/05/29 10:48:40;;;;;;;5.40;3.17;;;21.80;25.00;;;;;;10213111;29;20644;-81
2023/05/29 10:53:43;;;;;;;4.43;2.63;;;22.30;36.50;;;;;;10205721;29;20720;-80
2023/05/29 10:58:53;;;;;;;4.47;2.88;;;22.50;29.00;;;;;;10211076;29;20287;-80
2023/05/29 11:04:17;;;;;;;3.58;2.53;;;22.50;26.90;;;;;;10224205;29;20297;-80
2023/05/29 11:09:26;;;;;;;5.20;2.40;;;22.60;27.60;;;;;;10209414;28;20265;-81
2023/05/29 11:14:45;;;;;;;4.50;2.30;;;22.20;26.20;;;;;;10223212;28;20247;-81
2023/05/29 11:19:55;;;;;;;2.72;2.20;;;22.10;29.30;;;;;;10231062;28;20290;-81
2023/05/29 11:25:07;;;;;;;5.28;2.25;;;22.00;30.60;;;;;;10228920;29;20234;-81
2023/05/29 11:30:10;;;;;;;4.53;2.58;;;22.10;30.70;;;;;;10224903;29;20304;-82
2023/05/29 11:35:13;;;;;;;5.95;3.03;;;22.20;28.10;;;;;;10214075;29;20238;-81
2023/05/29 11:40:16;;;;;;;6.55;2.95;;;22.20;25.70;;;;;;10228952;29;20262;-81
2023/05/29 11:45:21;;;;;;;6.60;3.30;;;21.90;25.30;;;;;;10231694;29;20244;-81
2023/05/29 11:50:26;;;;;;;3.22;2.22;;;21.90;23.20;;;;;;10212847;29;20290;-81
2023/05/29 11:55:30;;;;;;;6.88;3.22;;;22.10;25.10;;;;;;10227407;29;20665;-81
2023/05/29 12:00:33;;;;;;;5.00;3.15;;;22.10;22.30;;;;;;10205600;29;20788;-81
2023/05/29 12:05:49;;;;;;;8.50;3.22;;;22.20;27.50;;;;;;10211748;29;20234;-81
2023/05/29 12:10:53;;;;;;;4.70;2.55;;;22.10;24.30;;;;;;10223869;29;20664;-81
2023/05/29 12:16:02;;;;;;;3.85;2.53;;;22.00;23.70;;;;;;10212957;28;20259;-79
2023/05/29 12:21:05;;;;;;;5.20;2.72;;;22.00;27.30;;;;;;10191991;29;20824;-79
2023/05/29 12:26:09;;;;;;;7.22;2.65;;;22.10;21.20;;;;;;10231922;29;20284;-79
2023/05/29 12:31:12;;;;;;;3.78;2.22;;;22.20;23.00;;;;;;10219531;29;20283;-79
2023/05/29 12:36:14;;;;;;;6.05;2.22;;;22.10;23.80;;;;;;10208732;29;20614;-80
2023/05/29 12:41:33;;;;;;;2.10;1.90;;;22.30;22.00;;;;;;10191646;29;20313;-80
2023/05/29 12:46:40;;;;;;;12.18;2.78;;;22.50;28.20;;;;;;10234166;29;20246;-79
2023/05/29 12:51:45;;;;;;;3.80;2.30;;;22.50;19.90;;;;;;10246427;29;20264;-80
2023/05/29 12:56:50;;;;;;;8.18;3.13;;;22.50;23.90;;;;;;10247378;29;20250;-80
2023/05/29 13:01:53;;;;;;;3.72;2.28;;;22.60;19.10;;;;;;10230034;29;20266;-80
2023/05/29 13:06:55;;;;;;;2.08;1.55;;;22.70;24.10;;;;;;10208296;29;20250;-80
2023/05/29 13:11:58;;;;;;;4.10;2.97;;;22.80;25.90;;;;;;10193893;29;20694;-81
2023/05/29 13:17:01;;;;;;;6.28;2.95;;;22.50;17.30;;;;;;10215380;28;20250;-84
2023/05/29 13:22:04;;;;;;;6.38;2.10;;;22.40;18.20;;;;;;10240761;28;20261;-85
2023/05/29 13:27:07;;;;;;;2.90;2.40;;;22.30;20.00;;;;;;10237187;28;20239;-83
2023/05/29 13:32:09;;;;;;;5.40;2.30;;;22.20;18.90;;;;;;10218658;28;20254;-84
2023/05/29 13:37:12;;;;;;;5.95;2.83;;;22.30;19.40;;;;;;10223293;28;20290;-83
2023/05/29 13:42:15;;;;;;;9.07;2.20;;;22.50;15.90;;;;;;10247012;28;20258;-84
2023/05/29 13:47:18;;;;;;;6.70;2.40;;;22.50;21.10;;;;;;10220570;28;20249;-85
2023/05/29 13:52:20;;;;;;;4.32;1.73;;;22.70;20.80;;;;;;10240594;28;20657;-84
2023/05/29 13:57:23;;;;;;;4.97;2.63;;;22.60;21.50;;;;;;10232365;28;20242;-84
2023/05/29 14:02:26;;;;;;;3.08;1.80;;;22.40;17.40;;;;;;10222103;28;20262;-85
2023/05/29 14:07:29;;;;;;;4.50;1.95;;;22.30;22.20;;;;;;10205491;28;20243;-84
2023/05/29 14:12:31;;;;;;;3.92;2.30;;;22.30;18.90;;;;;;10202520;28;20235;-84
2023/05/29 14:17:34;;;;;;;5.60;2.72;;;22.10;17.00;;;;;;10218861;28;20297;-84
2023/05/29 14:22:37;;;;;;;15.27;2.88;;;22.10;16.90;;;;;;10227710;28;20320;-84
2023/05/29 14:27:40;;;;;;;5.43;1.95;;;22.20;19.40;;;;;;10232071;28;20238;-83
2023/05/29 14:32:43;;;;;;;5.38;2.15;;;22.20;18.30;;;;;;10237430;28;20313;-83
2023/05/29 14:37:46;;;;;;;2.75;2.10;;;22.20;21.30;;;;;;10239107;28;20711;-86
2023/05/29 14:42:49;;;;;;;5.63;2.20;;;22.00;17.00;;;;;;10252295;28;20269;-87
2023/05/29 14:47:52;;;;;;;5.82;2.28;;;22.00;15.30;;;;;;10222054;28;20214;-84
2023/05/29 14:52:55;;;;;;;3.80;2.40;;;21.70;14.30;;;;;;10263042;28;20289;-85
2023/05/29 14:57:58;;;;;;;2.33;1.98;;;21.60;16.90;;;;;;10242430;28;20668;-86
2023/05/29 15:03:02;;;;;;;4.10;2.13;;;21.70;17.90;;;;;;10230557;28;20261;-85
2023/05/29 15:08:05;;;;;;;15.00;2.80;;;21.70;18.80;;;;;;10242379;28;20234;-84
2023/05/29 15:13:08;;;;;;;4.93;2.40;;;21.50;14.50;;;;;;10237254;28;20319;-85
2023/05/29 15:18:10;;;;;;;3.70;2.33;;;21.70;21.60;;;;;;10246491;28;20241;-84
2023/05/29 15:23:15;;;;;;;4.50;2.53;;;21.70;22.30;;;;;;10236171;28;20258;-85
2023/05/29 15:28:18;;;;;;;5.35;2.75;;;21.70;17.40;;;;;;10235370;29;20763;-83
2023/05/29 15:33:20;;;;;;;4.10;2.72;;;21.60;14.20;;;;;;10220199;29;20298;-83
2023/05/29 15:38:23;;;;;;;5.53;2.13;;;21.50;13.80;;;;;;10226354;29;20230;-84
2023/05/29 15:43:25;;;;;;;4.90;1.95;;;21.40;14.40;;;;;;10178448;29;20262;-85
2023/05/29 15:48:28;;;;;;;4.18;2.58;;;21.40;20.50;;;;;;10231309;29;20242;-85
2023/05/29 15:53:30;;;;;;;2.88;2.38;;;21.40;17.50;;;;;;10219416;29;20330;-85
2023/05/29 15:58:33;;;;;;;4.93;2.03;;;21.50;22.20;;;;;;10206125;29;20243;-84
2023/05/29 16:03:35;;;;;;;2.65;1.85;;;21.50;21.00;;;;;;10201195;29;20266;-84
2023/05/29 16:08:40;;;;;;;6.60;2.85;;;21.50;20.00;;;;;;10232123;29;20241;-83
2023/05/29 16:13:43;;;;;;;4.75;2.40;;;21.50;19.70;;;;;;10231980;29;20250;-81
2023/05/29 16:18:45;;;;;;;2.70;1.88;;;21.60;16.80;;;;;;10235564;29;20246;-82
2023/05/29 16:23:56;;;;;;;7.05;3.55;;;21.50;20.10;;;;;;10231406;29;20335;-81
2023/05/29 16:29:00;;;;;;;2.60;2.10;;;21.70;16.90;;;;;;10228246;29;20240;-82
2023/05/29 16:34:04;;;;;;;15.55;2.80;;;21.70;27.00;;;;;;10210304;28;20250;-81
2023/05/29 16:39:07;;;;;;;4.07;2.85;;;21.70;18.00;;;;;;10233012;29;20687;-81
2023/05/29 16:44:11;;;;;;;3.95;3.05;;;21.40;17.60;;;;;;10239512;28;20325;-81
2023/05/29 16:49:13;;;;;;;4.25;2.55;;;21.10;20.60;;;;;;10214366;29;20728;-82
2023/05/29 16:54:16;;;;;;;7.78;3.92;;;21.00;22.00;;;;;;10218128;29;20267;-81
2023/05/29 16:59:19;;;;;;;11.30;2.88;;;20.80;18.90;;;;;;10223229;29;20296;-80
2023/05/29 17:04:22;;;;;;;3.08;2.15;;;20.70;22.70;;;;;;10229757;29;20266;-81
2023/05/29 17:09:26;;;;;;;8.95;3.22;;;20.70;23.60;;;;;;10220494;29;20230;-82
2023/05/29 17:14:30;;;;;;;8.18;2.70;;;20.60;20.60;;;;;;10178867;29;20294;-82
2023/05/29 17:19:33;;;;;;;5.03;2.10;;;20.60;20.40;;;;;;10242036;29;20246;-82
2023/05/29 17:24:35;;;;;;;8.75;2.58;;;20.40;19.40;;;;;;10228756;29;20383;-82
2023/05/29 17:29:38;;;;;;;6.07;2.90;;;20.30;21.30;;;;;;10247071;28;20246;-82
2023/05/29 17:34:40;;;;;;;2.72;1.50;;;20.20;20.10;;;;;;10232201;28;20246;-83
2023/05/29 17:39:43;;;;;;;2.88;2.20;;;20.00;19.20;;;;;;10206294;29;20297;-83
2023/05/29 17:44:46;;;;;;;17.30;2.83;;;20.00;21.90;;;;;;10224477;29;20313;-82
2023/05/29 17:49:48;;;;;;;10.77;3.90;;;19.80;21.30;;;;;;10224943;29;20251;-87
2023/05/29 17:54:51;;;;;;;9.68;4.07;;;19.80;23.20;;;;;;10207477;29;20286;-84
2023/05/29 17:59:55;;;;;;;4.45;2.65;;;19.60;23.40;;;;;;10224569;29;20234;-84
2023/05/29 18:04:58;;;;;;;8.32;3.72;;;19.40;23.20;;;;;;10211812;29;20293;-85
2023/05/29 18:10:00;;;;;;;4.50;2.42;;;19.20;23.20;;;;;;10226888;29;20242;-85
2023/05/29 18:15:03;;;;;;;12.10;4.18;;;19.00;24.20;;;;;;10234163;29;20298;-87
2023/05/29 18:20:07;;;;;;;6.85;2.88;;;18.90;24.00;;;;;;10221605;28;20332;-84
2023/05/29 18:25:11;;;;;;;6.55;2.40;;;18.80;26.20;;;;;;10215988;29;20259;-84
2023/05/29 18:30:13;;;;;;;4.93;2.63;;;18.60;27.00;;;;;;10215623;28;20249;-84
2023/05/29 18:35:16;;;;;;;8.35;2.55;;;18.40;27.90;;;;;;10207588;29;20239;-83
2023/05/29 18:40:19;;;;;;;3.63;2.35;;;18.40;28.80;;;;;;10211653;29;20294;-84
2023/05/29 18:45:22;;;;;;;12.10;3.08;;;18.20;29.20;;;;;;10228988;29;20245;-86
2023/05/29 18:50:26;;;;;;;8.00;2.90;;;18.00;30.30;;;;;;10251685;28;20691;-85
2023/05/29 18:55:28;;;;;;;7.78;2.63;;;17.90;30.30;;;;;;10279567;28;20660;-84
2023/05/29 19:00:32;;;;;;;9.52;3.85;;;17.80;32.30;;;;;;10236571;28;20280;-84
2023/05/29 19:05:36;;;;;;;7.32;2.85;;;17.60;33.60;;;;;;10230747;29;20247;-85
2023/05/29 19:10:40;;;;;;;8.68;2.30;;;17.50;32.90;;;;;;10232071;29;20238;-85
2023/05/29 19:15:43;;;;;;;10.43;3.08;;;17.40;32.30;;;;;;10251131;28;20246;-86
2023/05/29 19:20:46;;;;;;;11.93;2.70;;;17.30;32.70;;;;;;10231913;29;20262;-84
2023/05/29 19:25:48;;;;;;;8.07;3.00;;;17.10;33.70;;;;;;10223770;28;20695;-82
2023/05/29 19:30:51;;;;;;;13.23;2.85;;;16.90;33.10;;;;;;10201606;29;20696;-82
2023/05/29 19:35:54;;;;;;;5.97;2.40;;;16.80;35.70;;;;;;10247846;28;20245;-82
2023/05/29 19:40:56;;;;;;;7.53;2.80;;;16.70;38.30;;;;;;10238010;28;20265;-82
2023/05/29 19:46:02;;;;;;;4.65;1.95;;;16.80;41.50;;;;;;10221674;29;20297;-82
2023/05/29 19:51:08;;;;;;;3.35;1.90;;;16.50;37.00;;;;;;10244491;29;20249;-81
2023/05/29 19:56:11;;;;;;;4.18;2.03;;;16.50;38.20;;;;;;10240566;28;20308;-85
2023/05/29 20:01:14;;;;;;;5.10;2.30;;;16.30;41.30;;;;;;10231692;28;20285;-85
2023/05/29 20:06:17;;;;;;;6.55;2.03;;;16.20;42.80;;;;;;10212701;29;20293;-83
2023/05/29 20:11:20;;;;;;;9.05;2.75;;;16.10;44.00;;;;;;10190175;29;20278;-81
2023/05/29 20:16:23;;;;;;;4.63;2.20;;;16.10;40.70;;;;;;10209367;29;20270;-83
2023/05/29 20:21:26;;;;;;;5.70;2.42;;;16.10;46.10;;;;;;10221243;29;20313;-85
2023/05/29 20:26:30;;;;;;;15.40;3.83;;;15.90;46.60;;;;;;10240580;29;20638;-83
2023/05/29 20:31:33;;;;;;;6.75;2.70;;;15.80;44.90;;;;;;10244059;29;20242;-82
2023/05/29 20:36:36;;;;;;;3.38;2.50;;;15.70;46.70;;;;;;10248568;29;21001;-82
2023/05/29 20:41:39;;;;;;;3.13;1.75;;;15.60;50.20;;;;;;10277590;23;20651;-83
2023/05/29 20:46:42;;;;;;;3.65;2.33;;;15.50;53.40;;;;;;10247171;28;20283;-85
2023/05/29 20:51:45;;;;;;;9.45;2.45;;;15.40;49.90;;;;;;10229387;28;20250;-85
2023/05/29 20:56:47;;;;;;;4.32;2.03;;;15.30;47.90;;;;;;10212438;28;20308;-86
2023/05/29 21:01:51;;;;;;;3.63;1.48;;;15.20;53.00;;;;;;10247423;28;20817;-85
2023/05/29 21:06:53;;;;;;;4.35;2.17;;;15.10;50.50;;;;;;10227622;28;20246;-84
2023/05/29 21:11:57;;;;;;;5.60;1.92;;;15.00;50.80;;;;;;10247784;28;20246;-82
2023/05/29 21:17:00;;;;;;;3.22;2.17;;;14.90;50.80;;;;;;10245660;28;20772;-81
2023/05/29 21:22:03;;;;;;;4.57;1.90;;;14.80;49.80;;;;;;10247614;28;20265;-81
2023/05/29 21:27:06;;;;;;;3.38;2.00;;;14.80;53.70;;;;;;10229048;28;20246;-82
2023/05/29 21:32:09;;;;;;;4.07;1.77;;;14.60;56.90;;;;;;10228557;28;20246;-82
2023/05/29 21:37:12;;;;;;;4.32;1.73;;;14.50;58.40;;;;;;10246461;28;20246;-83
2023/05/29 21:42:17;;;;;;;4.35;2.17;;;14.30;58.40;;;;;;10229092;28;20719;-83
2023/05/29 21:47:20;;;;;;;2.90;1.20;;;14.30;63.00;;;;;;10244788;28;20245;-84
2023/05/29 21:52:22;;;;;;;3.40;1.60;;;14.50;74.10;;;;;;10216825;28;20242;-83
2023/05/29 21:57:25;;;;;;;8.52;2.30;;;14.60;70.40;;;;;;10224935;28;20242;-83
2023/05/29 22:02:28;;;;;;;4.15;2.10;;;14.50;67.90;;;;;;10243770;28;20587;-83
2023/05/29 22:07:30;;;;;;;3.88;1.83;;;14.40;67.90;;;;;;10227178;28;20297;-84
2023/05/29 22:12:36;;;;;;;10.68;2.30;;;14.40;68.80;;;;;;10211276;28;20652;-83
2023/05/29 22:17:40;;;;;;;2.50;1.80;;;14.30;68.40;;;;;;10244396;28;20242;-83
2023/05/29 22:22:43;;;;;;;7.15;2.45;;;14.30;69.80;;;;;;10238565;28;20646;-83
2023/05/29 22:27:46;;;;;;;4.43;1.85;;;14.20;72.00;;;;;;10241796;28;20246;-83
2023/05/29 22:32:49;;;;;;;4.55;2.05;;;14.20;73.00;;;;;;10229350;28;20305;-83
2023/05/29 22:37:52;;;;;;;2.58;1.73;;;13.80;66.20;;;;;;10226706;28;20245;-83
2023/05/29 22:42:54;;;;;;;4.47;2.15;;;13.60;70.10;;;;;;10205325;29;20723;-83
2023/05/29 22:47:57;;;;;;;7.40;2.20;;;13.60;74.80;;;;;;10192859;29;20309;-83
2023/05/29 22:53:00;;;;;;;4.38;2.25;;;13.60;76.70;;;;;;10208237;29;20292;-83
2023/05/29 22:58:03;;;;;;;7.63;2.85;;;13.60;79.90;;;;;;10206336;29;20285;-83
2023/05/29 23:03:06;;;;;;;5.28;2.17;;;13.30;79.90;;;;;;10211131;29;20325;-83
2023/05/29 23:08:09;;;;;;;6.50;1.92;;;13.10;80.30;;;;;;10210373;29;20612;-83
2023/05/29 23:13:11;;;;;;;7.20;2.17;;;13.00;83.30;;;;;;10211044;29;20242;-83
2023/05/29 23:18:14;;;;;;;8.68;2.63;;;12.90;87.20;;;;;;10211107;29;20720;-83
2023/05/29 23:23:17;;;;;;;1.75;1.27;;;12.80;90.70;;;;;;10207545;29;20703;-83
2023/05/29 23:28:19;;;;;;;6.68;2.03;;;13.00;92.90;;;;;;10199926;29;20238;-83
2023/05/29 23:33:22;;;;;;;3.85;1.98;;;13.20;93.00;;;;;;10209196;29;20247;-83
2023/05/29 23:38:25;;;;;;;4.25;2.00;;;13.20;94.70;;;;;;10213208;28;20254;-82
2023/05/29 23:43:27;;;;;;;4.82;2.40;;;13.40;95.20;;;;;;10231516;28;20721;-83
2023/05/29 23:48:30;;;;;;;4.47;1.95;;;13.60;94.40;;;;;;10247403;28;20246;-83
2023/05/29 23:53:32;;;;;;;6.38;2.47;;;13.50;94.50;;;;;;10229240;28;20238;-83
2023/05/29 23:58:35;;;;;;;4.57;2.75;;;13.70;94.20;;;;;;10248400;28;20237;-83
